createdAt,value
2022-09-02T00:01:18.563Z,5.10
2022-09-02T00:03:48.595Z,4.77
2022-09-02T00:06:17.223Z,4.86
2022-09-02T00:08:45.043Z,4.67
2022-09-02T00:11:15.813Z,4.96
2022-09-02T00:13:44.122Z,5.15
2022-09-02T00:16:11.940Z,4.78
2022-09-02T00:18:39.905Z,4.30
2022-09-02T00:21:14.708Z,2.75
2022-09-02T00:23:43.843Z,3.20
2022-09-02T00:26:12.483Z,3.55
2022-09-02T00:28:39.904Z,3.68
2022-09-02T00:31:11.444Z,4.17
2022-09-02T00:33:39.683Z,3.82
2022-09-02T00:36:07.842Z,3.92
2022-09-02T00:38:36.523Z,3.91
2022-09-02T00:41:07.465Z,3.98
2022-09-02T00:43:44.688Z,4.17
2022-09-02T00:46:14.683Z,4.38
2022-09-02T00:48:48.163Z,3.98
2022-09-02T00:51:16.730Z,4.03
2022-09-02T00:53:48.319Z,4.34
2022-09-02T00:56:22.981Z,3.91
2022-09-02T00:58:53.199Z,4.15
2022-09-02T01:01:20.547Z,4.39
2022-09-02T01:03:48.444Z,4.20
2022-09-02T01:06:20.821Z,4.21
2022-09-02T01:09:00.521Z,4.00
2022-09-02T01:11:30.902Z,4.21
2022-09-02T01:13:58.261Z,4.45
2022-09-02T01:16:31.279Z,4.17
2022-09-02T01:19:01.841Z,4.18
2022-09-02T01:21:28.981Z,4.32
2022-09-02T01:23:57.621Z,4.27
2022-09-02T01:26:24.801Z,4.42
2022-09-02T01:28:51.921Z,4.13
2022-09-02T01:31:19.100Z,4.37
2022-09-02T01:33:46.254Z,4.50
2022-09-02T01:36:13.677Z,4.49
2022-09-02T01:38:41.195Z,4.39
2022-09-02T01:41:09.735Z,4.04
2022-09-02T01:43:36.856Z,4.13
2022-09-02T01:46:04.075Z,4.52
2022-09-02T01:48:31.209Z,4.37
2022-09-02T01:51:02.247Z,4.26
2022-09-02T01:53:30.826Z,4.46
2022-09-02T01:55:58.652Z,4.07
2022-09-02T01:58:27.204Z,4.33
2022-09-02T02:00:54.369Z,4.62
2022-09-02T02:03:21.901Z,4.23
2022-09-02T02:05:49.155Z,4.35
2022-09-02T02:08:16.565Z,4.32
2022-09-02T02:10:44.286Z,4.34
2022-09-02T02:13:11.603Z,4.61
2022-09-02T02:15:42.284Z,4.34
2022-09-02T02:18:10.021Z,4.38
2022-09-02T02:20:38.041Z,4.45
2022-09-02T02:23:07.561Z,4.69
2022-09-02T02:25:35.161Z,4.71
2022-09-02T02:28:03.858Z,4.55
2022-09-02T02:30:32.937Z,4.65
2022-09-02T02:33:01.498Z,4.76
2022-09-02T02:35:28.800Z,4.72
2022-09-02T02:37:56.178Z,4.53
2022-09-02T02:40:28.356Z,4.73
2022-09-02T02:42:55.478Z,4.88
2022-09-02T02:45:23.979Z,4.89
2022-09-02T02:47:52.268Z,4.72
2022-09-02T02:50:23.218Z,4.52
2022-09-02T02:52:51.423Z,4.55
2022-09-02T02:55:18.624Z,4.49
2022-09-02T02:57:46.263Z,4.54
2022-09-02T03:00:17.228Z,4.54
2022-09-02T03:02:45.297Z,4.77
2022-09-02T03:05:14.503Z,4.66
2022-09-02T03:07:43.346Z,4.80
2022-09-02T03:10:12.956Z,4.75
2022-09-02T03:12:41.196Z,4.84
2022-09-02T03:15:10.257Z,4.63
2022-09-02T03:17:37.536Z,4.78
2022-09-02T03:20:06.744Z,4.77
2022-09-02T03:22:33.922Z,4.96
2022-09-02T03:25:02.520Z,5.35
2022-09-02T03:27:29.767Z,4.88
2022-09-02T03:29:57.130Z,5.09
2022-09-02T03:32:26.240Z,4.90
2022-09-02T03:34:57.706Z,4.77
2022-09-02T03:37:24.848Z,4.71
2022-09-02T03:39:51.926Z,4.84
2022-09-02T03:42:21.511Z,4.84
2022-09-02T03:44:49.663Z,4.62
2022-09-02T03:47:16.811Z,4.77
2022-09-02T03:49:47.831Z,4.78
2022-09-02T03:52:15.130Z,4.83
2022-09-02T03:54:42.549Z,4.53
2022-09-02T03:57:09.748Z,4.87
2022-09-02T03:59:38.438Z,5.02
2022-09-02T04:02:05.617Z,4.81
2022-09-02T04:04:33.470Z,4.83
2022-09-02T04:07:01.930Z,4.78
2022-09-02T04:09:29.048Z,4.78
2022-09-02T04:11:56.170Z,4.79
2022-09-02T04:14:23.310Z,5.16
2022-09-02T04:16:51.811Z,4.82
2022-09-02T04:19:18.909Z,4.89
2022-09-02T04:21:46.070Z,4.84
2022-09-02T04:24:13.330Z,4.87
2022-09-02T04:26:44.974Z,4.75
2022-09-02T04:29:13.056Z,4.80
2022-09-02T04:31:40.547Z,4.88
2022-09-02T04:34:09.168Z,5.06
2022-09-02T04:36:36.249Z,4.79
2022-09-02T04:39:03.558Z,4.79
2022-09-02T04:41:31.429Z,4.80
2022-09-02T04:44:00.098Z,5.15
2022-09-02T04:46:34.686Z,5.27
2022-09-02T04:49:03.149Z,5.02
2022-09-02T04:51:32.595Z,5.13
2022-09-02T04:54:00.738Z,5.24
2022-09-02T04:56:31.151Z,5.37
2022-09-02T04:58:59.130Z,5.45
2022-09-02T05:01:30.697Z,5.57
2022-09-02T05:03:57.989Z,5.59
2022-09-02T05:06:28.076Z,5.55
2022-09-02T05:08:59.392Z,5.67
2022-09-02T05:11:29.082Z,5.64
2022-09-02T05:13:59.065Z,5.78
2022-09-02T05:16:30.620Z,5.46
2022-09-02T05:18:59.239Z,5.57
2022-09-02T05:21:26.382Z,5.64
2022-09-02T05:23:54.570Z,5.77
2022-09-02T05:26:23.920Z,5.45
2022-09-02T05:28:51.702Z,5.46
2022-09-02T05:31:21.138Z,5.39
2022-09-02T05:33:48.886Z,5.62
2022-09-02T05:36:20.376Z,5.56
2022-09-02T05:38:49.168Z,5.28
2022-09-02T05:41:18.709Z,5.54
2022-09-02T05:43:47.288Z,5.82
2022-09-02T05:46:18.168Z,5.58
2022-09-02T05:48:47.070Z,5.88
2022-09-02T05:51:14.237Z,6.23
2022-09-02T05:53:41.317Z,5.67
2022-09-02T05:56:08.776Z,5.41
2022-09-02T05:58:35.995Z,6.39
2022-09-02T06:01:10.278Z,7.02
2022-09-02T06:03:37.842Z,6.86
2022-09-02T06:06:06.822Z,7.31
2022-09-02T06:08:35.102Z,6.91
2022-09-02T06:11:03.041Z,7.15
2022-09-02T06:13:31.781Z,6.93
2022-09-02T06:15:59.068Z,7.18
2022-09-02T06:18:28.101Z,7.63
2022-09-02T06:20:55.762Z,7.61
2022-09-02T06:23:22.982Z,7.20
2022-09-02T06:25:50.181Z,7.08
2022-09-02T06:28:17.561Z,7.35
2022-09-02T06:30:46.705Z,7.48
2022-09-02T06:33:14.208Z,7.03
2022-09-02T06:35:46.100Z,6.88
2022-09-02T06:38:14.662Z,6.87
2022-09-02T06:40:48.652Z,6.95
2022-09-02T06:43:16.082Z,6.95
2022-09-02T06:45:44.217Z,6.51
2022-09-02T06:48:12.925Z,6.18
2022-09-02T06:50:44.585Z,6.39
2022-09-02T06:53:12.342Z,6.11
2022-09-02T06:55:41.464Z,5.75
2022-09-02T06:58:10.123Z,6.14
2022-09-02T07:00:38.025Z,5.60
2022-09-02T07:03:05.985Z,5.69
2022-09-02T07:05:33.131Z,6.08
2022-09-02T07:08:01.859Z,5.87
2022-09-02T07:10:28.997Z,6.02
2022-09-02T07:12:56.076Z,6.12
2022-09-02T07:15:23.458Z,6.56
2022-09-02T07:17:50.621Z,6.37
2022-09-02T07:20:18.017Z,6.36
2022-09-02T07:22:45.161Z,6.11
2022-09-02T07:25:13.797Z,5.85
2022-09-02T07:27:40.919Z,5.90
2022-09-02T07:30:10.338Z,6.34
2022-09-02T07:32:37.818Z,6.43
2022-09-02T07:35:07.932Z,6.18
2022-09-02T07:37:35.264Z,6.13
2022-09-02T07:40:02.566Z,6.19
2022-09-02T07:42:31.169Z,6.22
2022-09-02T07:44:58.345Z,6.07
2022-09-02T07:47:25.545Z,6.21
2022-09-02T07:52:40.765Z,6.28
2022-09-02T07:55:13.985Z,6.51
2022-09-02T07:57:43.564Z,6.38
2022-09-02T08:00:12.586Z,6.43
2022-09-02T08:02:39.864Z,6.33
2022-09-02T08:05:07.521Z,6.87
2022-09-02T08:07:34.704Z,6.58
2022-09-02T08:10:01.905Z,6.16
2022-09-02T08:12:29.046Z,6.62
2022-09-02T08:14:57.644Z,6.41
2022-09-02T08:17:25.565Z,5.65
2022-09-02T08:19:52.705Z,5.72
2022-09-02T08:22:19.886Z,6.11
2022-09-02T08:24:46.985Z,6.44
2022-09-02T08:27:14.283Z,6.49
2022-09-02T08:29:41.370Z,6.50
2022-09-02T08:32:10.027Z,6.67
2022-09-02T08:34:37.244Z,6.40
2022-09-02T08:37:04.346Z,6.42
2022-09-02T08:39:31.587Z,6.80
2022-09-02T08:42:08.984Z,5.83
2022-09-02T08:44:38.726Z,6.07
2022-09-02T08:47:16.183Z,6.00
2022-09-02T08:49:48.495Z,6.20
2022-09-02T08:52:25.124Z,6.20
2022-09-02T08:54:55.824Z,5.69
2022-09-02T08:57:24.405Z,5.81
2022-09-02T08:59:53.167Z,6.10
2022-09-02T09:02:31.512Z,6.44
2022-09-02T09:05:20.743Z,6.45
2022-09-02T09:08:03.283Z,6.27
2022-09-02T09:10:44.023Z,6.06
2022-09-02T09:13:42.164Z,6.30
2022-09-02T09:16:19.391Z,6.97
2022-09-02T09:18:59.836Z,6.64
2022-09-02T09:21:27.066Z,7.20
2022-09-02T09:23:56.427Z,7.31
2022-09-02T09:26:29.246Z,6.75
2022-09-02T09:28:56.646Z,7.15
2022-09-02T09:31:29.371Z,6.62
2022-09-02T09:34:00.943Z,6.84
2022-09-02T09:36:47.405Z,6.77
2022-09-02T09:39:21.109Z,7.20
2022-09-02T09:41:50.036Z,7.08
2022-09-02T09:44:50.084Z,7.73
2022-09-02T09:47:19.445Z,7.15
2022-09-02T09:49:51.551Z,8.00
2022-09-02T09:52:29.906Z,7.61
2022-09-02T09:55:15.684Z,7.48
2022-09-02T09:57:50.545Z,7.93
2022-09-02T10:00:22.350Z,7.02
2022-09-02T10:02:52.287Z,7.10
2022-09-02T10:05:33.381Z,9.04
2022-09-02T10:08:02.988Z,8.35
2022-09-02T10:10:32.302Z,7.90
2022-09-02T10:16:13.208Z,8.04
2022-09-02T10:18:50.083Z,8.49
2022-09-02T10:21:36.223Z,8.52
2022-09-02T10:24:17.461Z,7.81
2022-09-02T10:26:49.461Z,9.00
2022-09-02T10:29:48.323Z,8.42
2022-09-02T10:32:34.639Z,7.85
2022-09-02T10:35:12.720Z,9.16
2022-09-02T10:38:05.562Z,8.33
2022-09-02T10:40:40.048Z,7.98
2022-09-02T10:43:10.403Z,7.97
2022-09-02T10:45:45.823Z,8.24
2022-09-02T10:48:41.861Z,7.85
2022-09-02T10:51:21.919Z,7.16
2022-09-02T10:54:07.200Z,7.54
2022-09-02T10:56:43.840Z,7.10
2022-09-02T10:59:18.718Z,7.19
2022-09-02T11:01:51.998Z,7.56
2022-09-02T11:04:30.842Z,6.73
2022-09-02T11:07:04.016Z,7.20
2022-09-02T11:09:38.801Z,7.08
2022-09-02T11:12:15.202Z,7.76
2022-09-02T11:14:56.780Z,7.12
2022-09-02T11:17:31.139Z,6.56
2022-09-02T11:20:09.838Z,6.84
2022-09-02T11:22:49.919Z,6.28
2022-09-02T11:25:27.861Z,6.07
2022-09-02T11:28:06.469Z,6.65
2022-09-02T11:30:43.738Z,6.70
2022-09-02T11:33:19.583Z,7.02
2022-09-02T11:35:46.723Z,6.37
2022-09-02T11:38:33.642Z,6.50
2022-09-02T11:41:35.979Z,6.41
2022-09-02T11:44:31.348Z,6.28
2022-09-02T11:47:37.811Z,6.29
2022-09-02T11:50:35.792Z,7.00
2022-09-02T11:53:21.235Z,6.33
2022-09-02T11:55:54.502Z,6.46
2022-09-02T11:58:38.381Z,6.15
2022-09-02T12:01:26.761Z,5.60
2022-09-02T12:07:29.548Z,5.44
2022-09-02T12:09:59.245Z,5.57
2022-09-02T12:13:08.538Z,5.49
2022-09-02T12:15:39.384Z,4.89
2022-09-02T12:18:13.663Z,5.36
2022-09-02T12:21:16.561Z,5.14
2022-09-02T12:24:09.785Z,4.90
2022-09-02T12:27:25.440Z,5.08
2022-09-02T12:29:53.560Z,5.10
2022-09-02T12:33:00.740Z,6.29
2022-09-02T12:35:53.760Z,5.24
2022-09-02T12:38:38.342Z,3.39
2022-09-02T12:41:22.418Z,3.65
2022-09-02T12:44:01.578Z,5.19
2022-09-02T12:46:47.091Z,5.18
2022-09-02T12:49:32.781Z,5.48
2022-09-02T12:52:04.118Z,5.64
2022-09-02T12:54:41.880Z,6.04
2022-09-02T12:57:11.080Z,5.51
2022-09-02T12:59:41.180Z,5.52
2022-09-02T13:02:44.899Z,5.47
2022-09-02T13:05:25.540Z,5.86
2022-09-02T13:08:29.099Z,5.99
2022-09-02T13:11:27.547Z,5.70
2022-09-02T13:14:40.358Z,6.00
2022-09-02T13:17:36.221Z,5.50
2022-09-02T13:20:36.932Z,5.77
2022-09-02T13:23:54.711Z,5.59
2022-09-02T13:26:53.424Z,5.60
2022-09-02T13:30:02.821Z,5.61
2022-09-02T13:32:32.124Z,5.39
2022-09-02T13:35:03.325Z,5.37
2022-09-02T13:37:34.153Z,6.13
2022-09-02T13:40:07.521Z,6.20
2022-09-02T13:42:34.737Z,6.14
2022-09-02T13:45:13.879Z,5.55
2022-09-02T13:47:46.429Z,5.68
2022-09-02T13:50:18.368Z,5.15
2022-09-02T13:55:48.819Z,5.93
2022-09-02T13:58:30.826Z,5.98
2022-09-02T14:01:16.474Z,5.39
2022-09-02T14:03:47.839Z,5.49
2022-09-02T14:06:18.196Z,5.54
2022-09-02T14:08:47.046Z,5.08
2022-09-02T14:11:18.367Z,4.82
2022-09-02T14:13:49.705Z,5.15
2022-09-02T14:16:29.845Z,4.98
2022-09-02T14:19:22.106Z,4.68
2022-09-02T14:21:52.421Z,4.67
2022-09-02T14:24:32.061Z,4.54
2022-09-02T14:27:19.892Z,5.48
2022-09-02T14:29:58.919Z,4.64
2022-09-02T14:32:29.036Z,4.78
2022-09-02T14:35:19.959Z,4.79
2022-09-02T14:37:53.754Z,5.01
2022-09-02T14:40:34.731Z,5.30
2022-09-02T14:43:12.051Z,5.00
2022-09-02T14:45:45.707Z,4.97
2022-09-02T14:48:22.434Z,4.74
2022-09-02T14:51:02.133Z,4.61
2022-09-02T14:53:30.017Z,4.66
2022-09-02T14:55:58.338Z,4.96
2022-09-02T14:58:28.843Z,4.72
2022-09-02T15:00:58.883Z,4.43
2022-09-02T15:03:27.498Z,4.61
2022-09-02T15:05:55.340Z,4.73
2022-09-02T15:08:23.116Z,4.67
2022-09-02T15:10:51.420Z,4.45
2022-09-02T15:13:29.618Z,4.51
2022-09-02T15:15:57.702Z,4.64
2022-09-02T15:18:25.070Z,4.77
2022-09-02T15:20:53.559Z,4.89
2022-09-02T15:23:21.758Z,4.68
2022-09-02T15:25:49.040Z,4.65
2022-09-02T15:28:16.220Z,4.69
2022-09-02T15:30:44.837Z,4.69
2022-09-02T15:33:16.586Z,5.13
2022-09-02T15:35:44.966Z,4.52
2022-09-02T15:38:12.198Z,4.90
2022-09-02T15:40:39.248Z,5.31
2022-09-02T15:43:06.350Z,5.14
2022-09-02T15:45:33.519Z,5.45
2022-09-02T15:48:02.280Z,5.09
2022-09-02T15:50:32.121Z,4.95
2022-09-02T15:52:59.336Z,5.23
2022-09-02T15:55:29.428Z,5.53
2022-09-02T15:57:56.844Z,5.66
2022-09-02T16:00:23.980Z,6.15
2022-09-02T16:02:55.021Z,5.51
2022-09-02T16:05:23.699Z,5.33
2022-09-02T16:07:50.760Z,5.26
2022-09-02T16:10:18.239Z,5.74
2022-09-02T16:12:45.604Z,5.26
2022-09-02T16:15:12.841Z,5.22
2022-09-02T16:17:39.940Z,5.59
2022-09-02T16:20:07.980Z,5.84
2022-09-02T16:22:36.521Z,5.36
2022-09-02T16:25:03.860Z,4.97
2022-09-02T16:27:30.998Z,5.40
2022-09-02T16:29:58.112Z,5.21
2022-09-02T16:32:27.786Z,5.48
2022-09-02T16:34:55.164Z,5.26
2022-09-02T16:37:22.280Z,5.35
2022-09-02T16:39:50.940Z,5.80
2022-09-02T16:42:18.173Z,5.58
2022-09-02T16:44:45.363Z,5.86
2022-09-02T16:47:18.956Z,5.55
2022-09-02T16:49:47.339Z,5.86
2022-09-02T16:52:14.459Z,5.91
2022-09-02T16:54:41.539Z,5.65
2022-09-02T16:57:10.240Z,5.53
2022-09-02T16:59:37.277Z,5.72
2022-09-02T17:02:04.554Z,5.46
2022-09-02T17:04:31.641Z,5.78
2022-09-02T17:06:58.719Z,5.47
2022-09-02T17:09:26.038Z,5.43
2022-09-02T17:11:54.112Z,5.31
2022-09-02T17:14:22.977Z,5.35
2022-09-02T17:16:51.819Z,5.15
2022-09-02T17:19:20.808Z,5.36
2022-09-02T17:21:49.600Z,5.41
2022-09-02T17:24:18.421Z,5.49
2022-09-02T17:26:49.564Z,5.56
2022-09-02T17:29:46.983Z,5.67
2022-09-02T17:32:07.552Z,5.33
2022-09-02T17:34:34.959Z,5.47
2022-09-02T17:37:02.339Z,5.45
2022-09-02T17:39:29.448Z,4.93
2022-09-02T17:41:56.638Z,5.85
2022-09-02T17:44:26.304Z,5.40
2022-09-02T17:46:54.053Z,5.75
2022-09-02T17:49:22.700Z,5.93
2022-09-02T17:51:50.519Z,6.19
2022-09-02T17:54:18.261Z,6.95
2022-09-02T17:57:09.420Z,7.24
2022-09-02T17:59:59.919Z,6.83
2022-09-02T18:03:00.501Z,6.29
2022-09-02T18:05:31.619Z,6.82
2022-09-02T18:08:08.941Z,6.68
2022-09-02T18:10:38.104Z,6.85
2022-09-02T18:13:08.584Z,6.95
2022-09-02T18:15:47.878Z,6.34
2022-09-02T18:18:15.759Z,6.24
2022-09-02T18:20:51.879Z,6.14
2022-09-02T18:23:43.120Z,6.45
2022-09-02T18:26:21.519Z,6.43
2022-09-02T18:28:57.699Z,7.30
2022-09-02T18:31:40.519Z,7.16
2022-09-02T18:34:30.817Z,7.93
2022-09-02T18:37:10.898Z,8.05
2022-09-02T18:40:04.686Z,7.73
2022-09-02T18:42:42.903Z,7.57
2022-09-02T18:45:21.999Z,7.51
2022-09-02T18:47:55.110Z,8.15
2022-09-02T18:50:47.626Z,7.56
2022-09-02T18:53:19.499Z,7.56
2022-09-02T18:55:48.679Z,6.97
2022-09-02T18:58:30.023Z,7.53
2022-09-02T19:01:02.328Z,7.86
2022-09-02T19:03:34.758Z,7.51
2022-09-02T19:06:04.898Z,7.60
2022-09-02T19:08:34.164Z,6.53
2022-09-02T19:11:04.500Z,6.88
2022-09-02T19:13:44.182Z,7.06
2022-09-02T19:16:11.418Z,6.52
2022-09-02T19:18:38.685Z,6.57
2022-09-02T19:21:06.441Z,6.38
2022-09-02T19:23:36.741Z,6.54
2022-09-02T19:26:03.900Z,6.79
2022-09-02T19:28:32.460Z,6.08
2022-09-02T19:31:03.420Z,6.53
2022-09-02T19:33:34.012Z,6.77
2022-09-02T19:36:01.939Z,7.27
2022-09-02T19:38:29.078Z,6.44
2022-09-02T19:40:57.600Z,5.95
2022-09-02T19:43:24.876Z,5.73
2022-09-02T19:45:52.129Z,5.25
2022-09-02T19:48:20.177Z,5.42
2022-09-02T19:50:48.676Z,5.52
2022-09-02T19:53:22.338Z,5.50
2022-09-02T19:55:49.435Z,5.76
2022-09-02T19:58:17.916Z,5.79
2022-09-02T20:00:45.586Z,5.50
2022-09-02T20:03:12.723Z,5.72
2022-09-02T20:05:40.557Z,6.03
2022-09-02T20:08:08.555Z,6.63
2022-09-02T20:10:36.398Z,7.11
2022-09-02T20:13:04.156Z,6.62
2022-09-02T20:15:37.028Z,6.55
2022-09-02T20:18:11.610Z,6.97
2022-09-02T20:20:42.658Z,6.56
2022-09-02T20:23:11.885Z,6.19
2022-09-02T20:26:00.818Z,6.09
2022-09-02T20:28:38.119Z,6.37
2022-09-02T20:31:17.765Z,6.33
2022-09-02T20:33:57.715Z,6.06
2022-09-02T20:36:38.335Z,5.84
2022-09-02T20:39:22.449Z,6.74
2022-09-02T20:42:05.475Z,6.69
2022-09-02T20:44:50.074Z,6.83
2022-09-02T20:47:35.513Z,6.66
2022-09-02T20:50:25.434Z,7.03
2022-09-02T20:53:13.996Z,8.22
2022-09-02T20:55:52.875Z,8.37
2022-09-02T20:58:34.017Z,7.31
2022-09-02T21:01:07.292Z,7.13
2022-09-02T21:03:44.195Z,6.79
2022-09-02T21:06:11.715Z,6.90
2022-09-02T21:08:51.275Z,7.08
2022-09-02T21:11:21.196Z,6.42
2022-09-02T21:13:54.750Z,7.30
2022-09-02T21:16:28.526Z,8.04
2022-09-02T21:19:08.330Z,7.57
2022-09-02T21:21:41.712Z,7.62
2022-09-02T21:24:16.572Z,7.62
2022-09-02T21:26:55.668Z,8.45
2022-09-02T21:29:33.330Z,7.71
2022-09-02T21:32:09.381Z,7.99
2022-09-02T21:34:43.860Z,8.15
2022-09-02T21:37:14.140Z,8.93
2022-09-02T21:39:50.314Z,8.79
2022-09-02T21:42:30.724Z,9.02
2022-09-02T21:45:14.182Z,9.20
2022-09-02T21:47:57.183Z,8.57
2022-09-02T21:50:39.204Z,7.70
2022-09-02T21:53:20.155Z,7.48
2022-09-02T21:56:04.506Z,7.03
2022-09-02T21:58:57.363Z,6.43
2022-09-02T22:01:39.858Z,6.33
2022-09-02T22:04:18.560Z,6.51
2022-09-02T22:06:56.402Z,6.02
2022-09-02T22:09:30.321Z,6.27
2022-09-02T22:12:05.801Z,6.32
2022-09-02T22:14:43.543Z,6.61
2022-09-02T22:17:19.802Z,6.23
2022-09-02T22:19:53.921Z,6.24
2022-09-02T22:22:26.954Z,5.27
2022-09-02T22:24:54.754Z,5.33
2022-09-02T22:27:29.781Z,5.27
2022-09-02T22:30:04.981Z,6.33
2022-09-02T22:32:38.643Z,6.92
2022-09-02T22:35:14.081Z,6.28
2022-09-02T22:37:51.701Z,6.37
2022-09-02T22:40:24.381Z,6.03
2022-09-02T22:42:58.022Z,6.54
2022-09-02T22:45:34.060Z,6.79
2022-09-02T22:48:06.200Z,6.69
2022-09-02T22:50:41.282Z,6.83
2022-09-02T22:53:09.881Z,6.53
2022-09-02T22:55:53.322Z,6.17
2022-09-02T22:58:44.180Z,6.26
2022-09-02T23:01:20.360Z,6.41
2022-09-02T23:04:02.481Z,6.53
2022-09-02T23:06:31.680Z,6.14
2022-09-02T23:09:01.702Z,6.07
2022-09-02T23:11:38.789Z,5.70
2022-09-02T23:14:17.863Z,4.84
2022-09-02T23:17:14.981Z,4.76
2022-09-02T23:19:58.161Z,4.43
2022-09-02T23:22:37.063Z,4.80
2022-09-02T23:25:32.714Z,4.87
2022-09-02T23:28:12.480Z,4.87
2022-09-02T23:30:51.282Z,4.66
2022-09-02T23:33:34.103Z,4.86
2022-09-02T23:36:15.941Z,5.22
2022-09-02T23:39:02.661Z,5.03
2022-09-02T23:41:31.601Z,5.15
2022-09-02T23:43:59.202Z,4.76
2022-09-02T23:46:42.016Z,4.82
2022-09-02T23:49:18.640Z,5.32
2022-09-02T23:51:57.274Z,5.23
2022-09-02T23:54:44.244Z,5.37
2022-09-02T23:57:45.201Z,5.98
